This is the latest recevied weather packets stored in our database for station/object EGFF. If no packets are shown the sender has not sent any weather packets the latest 10 day(s).
| Time | Temp. | Humidity | Pressure | Rain* | Wind** | Luminosity | Snow |
|---|---|---|---|---|---|---|---|
| 1777104799 | 10.56° C | 53% | 1021 hPa | - | - | - | - |
| 1777104199 | 10.56° C | 53% | 1021 hPa | - | - | - | - |
| 1777103602 | 10° C | 57% | 1021 hPa | - | - | - | - |
| 1777103002 | 10° C | 57% | 1021 hPa | - | - | - | - |
| 1777102401 | 10° C | 57% | 1021 hPa | - | - | - | - |
| 1777101798 | 8.89° C | 57% | 1021 hPa | - | - | - | - |
| 1777101199 | 8.89° C | 57% | 1021 hPa | - | - | - | - |
| 1777100599 | 8.89° C | 57% | 1021 hPa | - | - | - | - |
| 1777099995 | 7.78° C | 65% | 1021 hPa | - | - | - | - |
| 1777099398 | 7.78° C | 65% | 1021 hPa | - | - | - | - |
| 1777098800 | 7.78° C | 65% | 1021 hPa | - | - | - | - |
| 1777098198 | 7.78° C | 61% | 1020 hPa | - | - | - | - |
| 1777097600 | 7.78° C | 61% | 1020 hPa | - | - | - | - |
| 1777097002 | 7.78° C | 61% | 1020 hPa | - | - | - | - |
| 1777096401 | 7.78° C | 61% | 1021 hPa | - | - | - | - |
| 1777095797 | 7.78° C | 61% | 1021 hPa | - | - | - | - |
| 1777095199 | 7.78° C | 61% | 1021 hPa | - | - | - | - |
| 1777094601 | 7.78° C | 61% | 1021 hPa | - | - | - | - |
| 1777093998 | 7.78° C | 61% | 1021 hPa | - | - | - | - |
| 1777093399 | 7.78° C | 61% | 1021 hPa | - | - | - | - |
| 1777092797 | 5.56° C | 75% | 1021 hPa | - | - | - | - |
| 1777092199 | 5.56° C | 75% | 1021 hPa | - | - | - | - |
| 1777091598 | 5.56° C | 75% | 1021 hPa | - | - | - | - |
| 1777091002 | 7.78° C | 65% | 1021 hPa | - | - | - | - |
| 1777090398 | 7.78° C | 65% | 1021 hPa | - | - | - | - |
* Rain since midnight (hover to see other rain measurements)
** Current wind speed in m/s (hover to see current wind gust speed)